createdAt,value
2023-01-09T00:01:21.856Z,60.58
2023-01-09T00:03:49.829Z,60.62
2023-01-09T00:06:17.926Z,61.99
2023-01-09T00:08:47.118Z,61.81
2023-01-09T00:11:15.049Z,63.19
2023-01-09T00:13:42.962Z,63.23
2023-01-09T00:16:11.043Z,62.61
2023-01-09T00:18:38.941Z,62.15
2023-01-09T00:21:08.597Z,64.12
2023-01-09T00:23:36.585Z,66.50
2023-01-09T00:26:08.403Z,65.83
2023-01-09T00:28:36.933Z,65.94
2023-01-09T00:31:06.995Z,64.76
2023-01-09T00:33:37.203Z,63.47
2023-01-09T00:36:05.312Z,65.88
2023-01-09T00:38:33.201Z,64.95
2023-01-09T00:41:03.285Z,64.43
2023-01-09T00:43:36.588Z,64.66
2023-01-09T00:46:07.719Z,67.02
2023-01-09T00:48:38.556Z,64.71
2023-01-09T00:51:08.184Z,68.97
2023-01-09T00:53:38.487Z,67.62
2023-01-09T00:56:09.617Z,68.02
2023-01-09T00:58:39.145Z,68.08
2023-01-09T01:01:07.370Z,69.06
2023-01-09T01:03:35.410Z,68.37
2023-01-09T01:06:25.840Z,68.31
2023-01-09T01:08:55.753Z,67.37
2023-01-09T01:11:24.431Z,64.35
2023-01-09T01:13:54.208Z,64.74
2023-01-09T01:16:22.097Z,63.56
2023-01-09T01:18:50.523Z,62.41
2023-01-09T01:21:18.762Z,62.23
2023-01-09T01:23:46.701Z,62.86
2023-01-09T01:26:16.391Z,64.36
2023-01-09T01:28:45.453Z,65.07
2023-01-09T01:31:18.988Z,63.54
2023-01-09T01:33:47.608Z,64.74
2023-01-09T01:36:17.426Z,64.76
2023-01-09T01:38:46.890Z,67.43
2023-01-09T01:41:14.892Z,65.89
2023-01-09T01:43:53.775Z,67.52
2023-01-09T01:46:23.436Z,66.76
2023-01-09T01:48:55.078Z,66.41
2023-01-09T01:51:25.323Z,66.56
2023-01-09T01:53:56.267Z,65.62
2023-01-09T01:56:28.022Z,65.88
2023-01-09T01:59:02.252Z,65.20
2023-01-09T02:01:33.119Z,64.91
2023-01-09T02:04:03.759Z,65.46
2023-01-09T02:06:34.890Z,65.32
2023-01-09T02:09:04.351Z,65.07
2023-01-09T02:11:32.560Z,64.29
2023-01-09T02:14:01.649Z,64.25
2023-01-09T02:16:47.706Z,63.33
2023-01-09T02:19:33.181Z,62.76
2023-01-09T02:22:12.714Z,62.27
2023-01-09T02:25:10.097Z,61.12
2023-01-09T02:28:06.827Z,61.09
2023-01-09T02:30:45.236Z,60.68
2023-01-09T02:33:30.343Z,62.38
2023-01-09T02:36:21.287Z,62.05
2023-01-09T02:39:00.769Z,63.34
2023-01-09T02:41:36.042Z,62.88
2023-01-09T02:44:15.860Z,63.80
2023-01-09T02:46:45.240Z,63.82
2023-01-09T02:49:17.177Z,60.48
2023-01-09T02:51:53.357Z,59.85
2023-01-09T02:54:30.519Z,62.92
2023-01-09T02:57:12.975Z,61.93
2023-01-09T02:59:54.850Z,62.40
2023-01-09T03:02:40.380Z,61.47
2023-01-09T03:05:15.751Z,61.78
2023-01-09T03:07:49.301Z,62.34
2023-01-09T03:10:21.829Z,62.17
2023-01-09T03:12:54.557Z,63.47
2023-01-09T03:15:27.014Z,64.09
2023-01-09T03:17:58.305Z,62.53
2023-01-09T03:20:28.678Z,65.32
2023-01-09T03:22:58.978Z,65.54
2023-01-09T03:25:28.396Z,63.70
2023-01-09T03:27:58.904Z,64.48
2023-01-09T03:30:28.209Z,64.65
2023-01-09T03:32:58.084Z,64.67
2023-01-09T03:35:26.073Z,64.51
2023-01-09T03:37:54.014Z,63.10
2023-01-09T03:40:22.426Z,63.61
2023-01-09T03:42:50.390Z,73.35
2023-01-09T03:45:18.267Z,77.41
2023-01-09T03:47:46.110Z,66.56
2023-01-09T03:50:15.391Z,63.69
2023-01-09T03:52:43.233Z,62.73
2023-01-09T03:55:11.326Z,61.99
2023-01-09T03:57:39.123Z,61.71
2023-01-09T04:00:09.178Z,61.63
2023-01-09T04:02:43.261Z,62.46
2023-01-09T04:05:11.710Z,61.48
2023-01-09T04:07:40.868Z,61.73
2023-01-09T04:10:09.748Z,61.53
2023-01-09T04:12:37.525Z,62.02
2023-01-09T04:15:05.967Z,60.98
2023-01-09T04:17:33.756Z,61.78
2023-01-09T04:20:01.637Z,61.25
2023-01-09T04:22:31.253Z,60.57
2023-01-09T04:25:00.398Z,60.95
2023-01-09T04:27:28.263Z,60.98
2023-01-09T04:29:56.081Z,60.86
2023-01-09T04:32:23.900Z,59.74
2023-01-09T04:34:51.646Z,60.59
2023-01-09T04:37:19.493Z,61.17
2023-01-09T04:39:47.616Z,60.09
2023-01-09T04:42:16.841Z,60.43
2023-01-09T04:44:44.684Z,59.68
2023-01-09T04:47:13.545Z,61.69
2023-01-09T04:49:41.385Z,59.52
2023-01-09T04:52:09.215Z,59.39
2023-01-09T04:54:36.984Z,59.54
2023-01-09T04:57:04.936Z,60.05
2023-01-09T04:59:34.196Z,60.63
2023-01-09T05:02:02.237Z,60.33
2023-01-09T05:04:30.137Z,59.39
2023-01-09T05:06:57.895Z,60.06
2023-01-09T05:09:25.696Z,59.27
2023-01-09T05:11:53.734Z,59.09
2023-01-09T05:14:21.719Z,59.32
2023-01-09T05:16:50.994Z,59.64
2023-01-09T05:19:19.064Z,60.06
2023-01-09T05:21:47.450Z,60.34
2023-01-09T05:24:15.325Z,61.09
2023-01-09T05:26:43.119Z,60.15
2023-01-09T05:29:11.753Z,60.51
2023-01-09T05:31:39.540Z,60.98
2023-01-09T05:34:08.793Z,61.77
2023-01-09T05:36:37.027Z,61.35
2023-01-09T05:39:05.849Z,60.66
2023-01-09T05:41:33.669Z,60.97
2023-01-09T05:44:01.776Z,59.55
2023-01-09T05:46:29.602Z,59.39
2023-01-09T05:48:57.595Z,59.23
2023-01-09T05:51:26.806Z,62.39
2023-01-09T05:53:54.675Z,71.02
2023-01-09T05:56:22.560Z,73.11
2023-01-09T05:58:50.479Z,73.00
2023-01-09T06:01:18.281Z,69.43
2023-01-09T06:03:46.153Z,71.38
2023-01-09T06:06:13.921Z,70.08
2023-01-09T06:08:43.122Z,69.57
2023-01-09T06:11:10.955Z,70.41
2023-01-09T06:13:38.799Z,58.13
2023-01-09T06:16:07.775Z,56.52
2023-01-09T06:18:35.663Z,56.43
2023-01-09T06:21:03.484Z,56.46
2023-01-09T06:23:31.364Z,56.18
2023-01-09T06:26:00.597Z,56.94
2023-01-09T06:28:28.425Z,55.36
2023-01-09T06:30:56.339Z,56.88
2023-01-09T06:33:24.239Z,56.13
2023-01-09T06:35:52.156Z,55.75
2023-01-09T06:38:20.059Z,56.23
2023-01-09T06:40:48.010Z,55.00
2023-01-09T06:43:17.327Z,54.92
2023-01-09T06:45:45.215Z,55.97
2023-01-09T06:48:13.695Z,56.54
2023-01-09T06:50:41.896Z,56.91
2023-01-09T06:53:10.624Z,56.60
2023-01-09T06:55:38.615Z,57.45
2023-01-09T06:58:06.594Z,57.57
2023-01-09T07:00:36.190Z,57.59
2023-01-09T07:03:04.487Z,58.21
2023-01-09T07:05:35.616Z,58.36
2023-01-09T07:08:03.547Z,58.29
2023-01-09T07:10:31.446Z,58.21
2023-01-09T07:12:59.312Z,60.34
2023-01-09T07:15:27.346Z,59.58
2023-01-09T07:17:56.539Z,59.62
2023-01-09T07:20:24.500Z,61.71
2023-01-09T07:22:52.356Z,61.12
2023-01-09T07:25:20.209Z,61.98
2023-01-09T07:27:48.935Z,61.29
2023-01-09T07:30:17.418Z,61.35
2023-01-09T07:32:45.469Z,61.06
2023-01-09T07:35:14.790Z,60.49
2023-01-09T07:37:42.576Z,60.79
2023-01-09T07:40:11.810Z,60.21
2023-01-09T07:42:39.741Z,61.85
2023-01-09T07:45:09.021Z,61.63
2023-01-09T07:47:37.143Z,61.37
2023-01-09T07:50:05.345Z,59.91
2023-01-09T07:52:34.472Z,60.89
2023-01-09T07:55:02.337Z,60.49
2023-01-09T07:57:30.847Z,59.83
2023-01-09T08:00:00.576Z,58.87
2023-01-09T08:02:28.753Z,58.07
2023-01-09T08:04:56.607Z,57.79
2023-01-09T08:07:24.463Z,58.90
2023-01-09T08:09:53.662Z,58.98
2023-01-09T08:12:21.530Z,63.35
2023-01-09T08:14:49.370Z,65.05
2023-01-09T08:17:17.178Z,69.83
2023-01-09T08:19:45.270Z,71.28
2023-01-09T08:22:13.103Z,71.92
2023-01-09T08:24:40.966Z,71.86
2023-01-09T08:27:10.214Z,69.94
2023-01-09T08:29:38.924Z,71.84
2023-01-09T08:32:06.946Z,73.57
2023-01-09T08:34:34.856Z,72.33
2023-01-09T08:37:02.698Z,70.96
2023-01-09T08:39:30.693Z,70.10
2023-01-09T08:42:16.292Z,70.56
2023-01-09T08:45:02.865Z,70.29
2023-01-09T08:47:33.348Z,70.21
2023-01-09T08:50:01.566Z,71.97
2023-01-09T08:52:30.614Z,72.93
2023-01-09T08:54:58.574Z,72.80
2023-01-09T08:57:26.495Z,71.93
2023-01-09T08:59:55.756Z,74.96
2023-01-09T09:02:23.882Z,76.13
2023-01-09T09:04:53.663Z,76.00
2023-01-09T09:07:26.607Z,75.30
2023-01-09T09:09:54.994Z,75.56
2023-01-09T09:12:23.952Z,74.40
2023-01-09T09:15:09.442Z,69.49
2023-01-09T09:17:38.661Z,73.15
2023-01-09T09:20:07.843Z,74.33
2023-01-09T09:22:35.710Z,73.79
2023-01-09T09:25:04.888Z,74.33
2023-01-09T09:27:33.374Z,72.66
2023-01-09T09:30:01.257Z,72.78
2023-01-09T09:32:29.282Z,71.49
2023-01-09T09:34:58.556Z,73.27
2023-01-09T09:37:26.362Z,70.23
2023-01-09T09:39:54.423Z,71.74
2023-01-09T09:43:05.428Z,72.59
2023-01-09T09:45:44.557Z,73.61
2023-01-09T09:48:27.452Z,73.91
2023-01-09T09:51:19.227Z,73.80
2023-01-09T09:53:52.756Z,74.12
2023-01-09T09:56:24.378Z,75.86
2023-01-09T09:58:55.202Z,76.31
2023-01-09T10:01:26.638Z,76.65
2023-01-09T10:03:58.414Z,75.27
2023-01-09T10:06:30.565Z,75.15
2023-01-09T10:09:04.954Z,75.21
2023-01-09T10:11:40.508Z,75.48
2023-01-09T10:14:19.420Z,75.72
2023-01-09T10:17:04.766Z,71.62
2023-01-09T10:19:42.718Z,77.32
2023-01-09T10:22:25.024Z,76.98
2023-01-09T10:25:13.964Z,78.43
2023-01-09T10:28:03.404Z,79.10
2023-01-09T10:30:38.716Z,76.97
2023-01-09T10:33:24.556Z,77.90
2023-01-09T10:36:26.324Z,77.20
2023-01-09T10:39:00.141Z,76.50
2023-01-09T10:41:32.839Z,76.89
2023-01-09T10:44:06.825Z,75.52
2023-01-09T10:46:40.401Z,74.28
2023-01-09T10:49:13.788Z,74.57
2023-01-09T10:51:47.927Z,73.91
2023-01-09T10:54:20.059Z,74.75
2023-01-09T10:56:55.463Z,73.94
2023-01-09T10:59:23.564Z,73.32
2023-01-09T11:01:51.618Z,71.44
2023-01-09T11:04:27.108Z,64.70
2023-01-09T11:07:00.935Z,68.75
2023-01-09T11:09:50.229Z,62.89
2023-01-09T11:12:26.097Z,69.27
2023-01-09T11:14:54.028Z,65.49
2023-01-09T11:17:26.601Z,68.13
2023-01-09T11:20:06.628Z,59.52
2023-01-09T11:22:44.681Z,57.44
2023-01-09T11:25:16.435Z,57.32
2023-01-09T11:27:44.513Z,58.83
2023-01-09T11:30:23.975Z,58.90
2023-01-09T11:32:51.847Z,57.30
2023-01-09T11:35:23.978Z,57.41
2023-01-09T11:38:02.346Z,55.79
2023-01-09T11:40:36.531Z,56.01
2023-01-09T11:43:12.307Z,55.41
2023-01-09T11:45:56.444Z,55.06
2023-01-09T11:48:34.387Z,55.05
2023-01-09T11:51:03.677Z,55.81
2023-01-09T11:53:46.637Z,55.45
2023-01-09T11:56:17.634Z,55.49
2023-01-09T11:58:45.836Z,54.97
2023-01-09T12:01:34.712Z,54.76
2023-01-09T12:04:24.891Z,54.00
2023-01-09T12:07:07.153Z,53.91
2023-01-09T12:09:42.537Z,53.52
2023-01-09T12:12:25.603Z,53.43
2023-01-09T12:15:10.184Z,53.43
2023-01-09T12:17:51.939Z,52.86
2023-01-09T12:20:34.384Z,52.55
2023-01-09T12:23:19.687Z,52.36
2023-01-09T12:25:59.494Z,51.77
2023-01-09T12:28:45.791Z,51.90
2023-01-09T12:31:30.016Z,52.57
2023-01-09T12:34:08.558Z,53.21
2023-01-09T12:36:45.076Z,53.26
2023-01-09T12:39:26.508Z,54.19
2023-01-09T12:42:08.755Z,54.55
2023-01-09T12:44:52.254Z,55.85
2023-01-09T12:47:39.455Z,56.38
2023-01-09T12:50:24.806Z,58.00
2023-01-09T12:53:06.540Z,58.49
2023-01-09T12:55:38.027Z,59.26
2023-01-09T12:58:13.062Z,59.72
2023-01-09T13:00:46.525Z,65.90
2023-01-09T13:03:21.572Z,63.36
2023-01-09T13:05:53.135Z,60.24
2023-01-09T13:08:26.805Z,61.42
2023-01-09T13:11:03.321Z,62.45
2023-01-09T13:13:44.331Z,62.09
2023-01-09T13:16:17.127Z,62.76
2023-01-09T13:18:48.911Z,62.56
2023-01-09T13:21:17.868Z,63.73
2023-01-09T13:23:52.439Z,65.59
2023-01-09T13:26:24.610Z,66.51
2023-01-09T13:28:57.104Z,65.42
2023-01-09T13:31:40.562Z,63.67
2023-01-09T13:34:21.720Z,63.06
2023-01-09T13:36:52.840Z,63.72
2023-01-09T13:39:22.895Z,62.06
2023-01-09T13:42:13.222Z,61.65
2023-01-09T13:44:41.622Z,60.78
2023-01-09T13:47:20.035Z,61.56
2023-01-09T13:50:06.067Z,61.51
2023-01-09T13:52:37.255Z,63.15
2023-01-09T13:55:30.226Z,62.82
2023-01-09T13:58:25.916Z,61.73
2023-01-09T14:01:27.378Z,61.44
2023-01-09T14:04:38.277Z,60.80
2023-01-09T14:07:20.338Z,60.09
2023-01-09T14:09:51.917Z,59.83
2023-01-09T14:12:21.551Z,60.24
2023-01-09T14:14:51.785Z,60.11
2023-01-09T14:17:28.385Z,59.79
2023-01-09T14:20:00.338Z,59.55
2023-01-09T14:22:30.532Z,59.45
2023-01-09T14:25:05.615Z,60.46
2023-01-09T14:28:08.367Z,59.91
2023-01-09T14:30:40.109Z,59.93
2023-01-09T14:33:27.605Z,59.85
2023-01-09T14:36:06.563Z,59.18
2023-01-09T14:38:37.157Z,60.40
2023-01-09T14:41:10.799Z,65.35
2023-01-09T14:43:58.123Z,68.56
2023-01-09T14:46:30.925Z,70.02
2023-01-09T14:49:07.056Z,71.47
2023-01-09T14:51:43.771Z,73.61
2023-01-09T14:54:25.262Z,74.14
2023-01-09T14:56:54.107Z,74.01
2023-01-09T14:59:21.972Z,72.95
2023-01-09T15:01:55.411Z,63.33
2023-01-09T15:04:35.783Z,72.51
2023-01-09T15:07:07.004Z,74.15
2023-01-09T15:09:44.315Z,64.32
2023-01-09T15:12:19.482Z,72.36
2023-01-09T15:14:51.526Z,74.68
2023-01-09T15:17:22.551Z,76.59
2023-01-09T15:19:50.578Z,76.06
2023-01-09T15:22:26.367Z,75.42
2023-01-09T15:24:54.338Z,77.62
2023-01-09T15:27:23.349Z,75.86
2023-01-09T15:29:51.507Z,75.24
2023-01-09T15:32:25.133Z,77.76
2023-01-09T15:34:54.667Z,77.65
2023-01-09T15:37:29.662Z,78.04
2023-01-09T15:39:59.007Z,77.63
2023-01-09T15:42:47.314Z,77.20
2023-01-09T15:45:26.080Z,78.67
2023-01-09T15:47:54.705Z,74.80
2023-01-09T15:50:28.421Z,72.21
2023-01-09T15:52:58.116Z,76.45
2023-01-09T15:55:35.203Z,76.77
2023-01-09T15:58:04.257Z,76.24
2023-01-09T16:00:41.976Z,76.45
2023-01-09T16:03:23.154Z,76.95
2023-01-09T16:05:53.957Z,76.01
2023-01-09T16:08:26.870Z,75.38
2023-01-09T16:10:57.191Z,74.91
2023-01-09T16:13:27.901Z,74.42
2023-01-09T16:15:57.455Z,76.04
2023-01-09T16:18:31.863Z,77.83
2023-01-09T16:21:21.867Z,78.18
2023-01-09T16:23:57.418Z,79.01
2023-01-09T16:26:27.244Z,79.85
2023-01-09T16:28:55.565Z,79.19
2023-01-09T16:31:26.570Z,79.19
2023-01-09T16:34:05.873Z,79.32
2023-01-09T16:36:36.150Z,80.00
2023-01-09T16:39:05.907Z,74.42
2023-01-09T16:41:51.314Z,70.54
2023-01-09T16:44:19.451Z,72.01
2023-01-09T16:46:48.828Z,64.19
2023-01-09T16:49:19.637Z,68.07
2023-01-09T16:51:48.461Z,72.11
2023-01-09T16:54:18.141Z,65.04
2023-01-09T16:56:51.756Z,72.86
2023-01-09T16:59:21.600Z,74.77
2023-01-09T17:01:49.601Z,68.28
2023-01-09T17:04:20.031Z,67.33
2023-01-09T17:06:49.551Z,75.92
2023-01-09T17:09:23.158Z,71.00
2023-01-09T17:11:52.034Z,67.27
2023-01-09T17:14:19.911Z,65.01
2023-01-09T17:16:47.888Z,73.37
2023-01-09T17:19:19.296Z,67.23
2023-01-09T17:21:47.368Z,75.20
2023-01-09T17:24:33.921Z,79.39
2023-01-09T17:27:21.749Z,78.90
2023-01-09T17:29:49.740Z,78.21
2023-01-09T17:32:18.671Z,79.19
2023-01-09T17:34:46.490Z,81.41
2023-01-09T17:37:16.491Z,80.55
2023-01-09T17:39:44.466Z,70.78
2023-01-09T17:42:13.799Z,64.47
2023-01-09T17:44:41.688Z,67.19
2023-01-09T17:47:15.212Z,68.78
2023-01-09T17:49:43.256Z,78.75
2023-01-09T17:52:11.178Z,82.28
2023-01-09T17:54:38.961Z,78.73
2023-01-09T17:57:07.809Z,75.60
2023-01-09T17:59:37.061Z,72.60
2023-01-09T18:02:04.975Z,67.28
2023-01-09T18:04:32.853Z,72.96
2023-01-09T18:07:00.654Z,69.97
2023-01-09T18:09:28.512Z,69.89
2023-01-09T18:11:56.558Z,69.22
2023-01-09T18:14:24.510Z,71.42
2023-01-09T18:16:53.795Z,75.06
2023-01-09T18:19:21.666Z,70.03
2023-01-09T18:21:49.499Z,69.59
2023-01-09T18:24:17.477Z,66.37
2023-01-09T18:26:45.310Z,65.64
2023-01-09T18:29:13.921Z,65.53
2023-01-09T18:31:41.981Z,64.43
2023-01-09T18:34:11.307Z,64.43
2023-01-09T18:36:39.520Z,63.94
2023-01-09T18:39:08.739Z,63.82
2023-01-09T18:41:36.621Z,64.44
2023-01-09T18:44:07.330Z,63.90
2023-01-09T18:56:48.419Z,61.74
2023-01-09T18:59:17.659Z,62.85
2023-01-09T19:01:45.378Z,62.40
2023-01-09T19:04:13.236Z,61.50
2023-01-09T19:06:41.090Z,62.42
2023-01-09T19:09:09.255Z,63.32
2023-01-09T19:11:37.034Z,63.16
2023-01-09T19:14:04.856Z,63.03
2023-01-09T19:16:33.993Z,61.93
2023-01-09T19:19:02.744Z,63.50
2023-01-09T19:21:30.679Z,64.11
2023-01-09T19:23:58.781Z,62.91
2023-01-09T19:26:28.781Z,63.61
2023-01-09T19:28:57.592Z,63.88
2023-01-09T19:31:28.464Z,64.25
2023-01-09T19:33:58.501Z,63.82
2023-01-09T19:36:26.923Z,63.01
2023-01-09T19:38:57.629Z,62.97
2023-01-09T19:41:25.365Z,62.40
2023-01-09T19:43:53.182Z,63.52
2023-01-09T19:46:23.046Z,61.85
2023-01-09T19:48:51.893Z,62.11
2023-01-09T19:51:22.494Z,62.47
2023-01-09T19:53:53.669Z,63.33
2023-01-09T19:56:23.426Z,64.29
2023-01-09T19:58:53.450Z,64.44
2023-01-09T20:01:24.609Z,65.21
2023-01-09T20:03:53.233Z,64.85
2023-01-09T20:06:24.361Z,65.36
2023-01-09T20:08:54.805Z,66.32
2023-01-09T20:11:23.463Z,65.50
2023-01-09T20:13:51.890Z,64.76
2023-01-09T20:16:22.039Z,64.55
2023-01-09T20:18:50.096Z,64.79
2023-01-09T20:21:21.646Z,65.87
2023-01-09T20:23:51.073Z,66.02
2023-01-09T20:26:18.880Z,65.61
2023-01-09T20:28:47.697Z,66.57
2023-01-09T20:31:17.423Z,65.49
2023-01-09T20:33:46.860Z,66.81
2023-01-09T20:36:15.183Z,67.06
2023-01-09T20:38:43.664Z,66.39
2023-01-09T20:41:22.607Z,67.28
2023-01-09T20:43:50.663Z,67.60
2023-01-09T20:46:19.164Z,66.36
2023-01-09T20:48:46.995Z,65.48
2023-01-09T20:51:15.023Z,65.47
2023-01-09T20:53:45.191Z,66.67
2023-01-09T20:56:15.007Z,65.90
2023-01-09T20:58:43.208Z,67.18
2023-01-09T21:01:12.683Z,72.84
2023-01-09T21:03:41.120Z,70.05
2023-01-09T21:06:11.217Z,76.98
2023-01-09T21:08:39.535Z,80.44
2023-01-09T21:11:07.274Z,80.54
2023-01-09T21:13:36.390Z,81.88
2023-01-09T21:16:08.262Z,74.07
2023-01-09T21:18:37.746Z,68.63
2023-01-09T21:21:06.589Z,67.44
2023-01-09T21:23:34.621Z,66.81
2023-01-09T21:26:02.932Z,67.23
2023-01-09T21:28:31.709Z,66.45
2023-01-09T21:31:00.877Z,67.71
2023-01-09T21:33:28.764Z,67.86
2023-01-09T21:35:57.787Z,67.14
2023-01-09T21:38:27.001Z,68.73
2023-01-09T21:40:55.386Z,68.47
2023-01-09T21:43:44.742Z,69.47
2023-01-09T21:46:37.846Z,80.28
2023-01-09T21:49:06.749Z,83.67
2023-01-09T21:51:38.809Z,82.29
2023-01-09T21:54:06.822Z,84.76
2023-01-09T21:56:34.845Z,84.96
2023-01-09T21:59:03.103Z,85.39
2023-01-09T22:01:33.650Z,85.38
2023-01-09T22:04:01.798Z,85.99
2023-01-09T22:06:29.739Z,85.51
2023-01-09T22:08:57.680Z,84.77
2023-01-09T22:11:25.647Z,84.92
2023-01-09T22:13:54.435Z,86.04
2023-01-09T22:16:24.381Z,84.62
2023-01-09T22:18:54.334Z,83.97
2023-01-09T22:21:23.290Z,85.17
2023-01-09T22:23:51.398Z,85.29
2023-01-09T22:26:19.983Z,84.89
2023-01-09T22:28:48.621Z,84.60
2023-01-09T22:31:19.814Z,84.92
2023-01-09T22:33:51.310Z,84.28
2023-01-09T22:36:21.017Z,84.04
2023-01-09T22:38:48.905Z,82.74
2023-01-09T22:41:16.850Z,82.48
2023-01-09T22:43:44.833Z,82.88
2023-01-09T22:46:12.801Z,82.96
2023-01-09T22:48:42.060Z,83.08
2023-01-09T22:51:15.157Z,83.55
2023-01-09T22:53:44.483Z,72.12
2023-01-09T22:56:15.260Z,71.27
2023-01-09T22:58:43.267Z,80.44
2023-01-09T23:01:12.497Z,81.22
2023-01-09T23:03:41.225Z,73.48
2023-01-09T23:06:12.712Z,67.62
2023-01-09T23:08:41.487Z,66.11
2023-01-09T23:11:13.041Z,64.27
2023-01-09T23:13:40.920Z,64.56
2023-01-09T23:16:09.364Z,66.28
2023-01-09T23:18:37.240Z,64.69
2023-01-09T23:21:06.129Z,64.94
2023-01-09T23:23:34.273Z,64.61
2023-01-09T23:26:04.754Z,65.10
2023-01-09T23:28:34.137Z,64.82
2023-01-09T23:31:02.079Z,63.12
2023-01-09T23:33:30.085Z,64.39
2023-01-09T23:35:58.567Z,63.66
2023-01-09T23:38:26.399Z,63.38
2023-01-09T23:40:57.933Z,63.63
2023-01-09T23:43:24.877Z,63.24
2023-01-09T23:45:54.146Z,62.58
2023-01-09T23:48:22.115Z,62.12
2023-01-09T23:50:52.004Z,62.99
2023-01-09T23:53:20.963Z,62.92
2023-01-09T23:55:49.050Z,63.26
2023-01-09T23:58:17.020Z,63.25
